Meath Environmental Platform

Observations for Trim Patrick St

Time AQI Temp °C Hum % Pres Pa CO μg/m³ H₂S μg/m³ NO μg/m³ NO₂ μg/m³ O₃ μg/m³ SO₂ μg/m³ PM1 μg/m³ PM2.5 μg/m³ PM10 μg/m³
Monday 3 August 2026
19:50 4 21.8 59 72,459 0 31.36 0.58 70.53 57.08 7.7 3.71 8.09 8.9
19:49 4 21.8 55 72,116 0 27.05 0.75 61.82 52.35 6.25 3.71 8.36 9.2
19:48 4 21.9 57 71,846 0 29.19 0.68 65.49 68.17 7.41 2.86 7.46 8.21
19:47 4 21.9 57 71,548 0 29.06 0.59 94.29 32.82 6.7 5.43 9.71 10.68
19:46 4 22 57 71,250 0 25.39 0.79 60.66 48.19 7.02 4.57 10.47 11.52
19:45 4 22 56 71,069 0 24.41 0.67 54.78 62.54 6.84 3.71 9.04 9.94
19:44 4 22.1 54 70,884 0 27.42 0.85 55.36 50.78 7.29 4.57 9.19 10.11
19:43 4 22.1 56 70,643 0 30.07 0.8 67.11 56.07 7.2 4.57 9.03 9.93
19:42 4 22.1 57 70,321 0 31.15 0.72 75.87 82.99 7.63 4.57 9.74 10.72
19:41 4 22.2 56 70,009 0 28.38 0.75 67.84 68.24 7.69 4.57 9.02 9.93
19:40 4 22.2 56 69,806 0 26.05 0.96 63.11 49.98 6.77 4.57 9.06 9.96
19:39 4 22.2 55 69,656 0 28.51 1.03 69.98 88.63 7.62 3.71 9.09 10
19:38 4 22.3 55 69,485 0 27.42 0.91 54.3 52.29 7.91 2.86 8.35 9.18
19:37 4 22.3 54 69,351 0 28.06 0.96 64.85 70.95 7.35 4.57 9.17 10.08
19:36 4 22.3 54 69,262 0 27.13 0.78 69.26 83.09 7.41 3.71 8.41 9.25
19:35 4 22.4 54 69,179 0 24.6 0.9 53.97 61.56 7.24 2.86 7.67 8.44
19:34 4 22.4 53 69,130 0 23.83 0.92 51.23 59.75 7.35 3.71 9.22 10.15
19:33 4 22.4 53 69,094 0 23.72 1.06 52.09 60.64 6.64 2.86 7.74 8.51
19:32 4 22.4 53 69,053 0 25.6 1.05 74.91 47.19 7.35 3.71 9.22 10.15
19:31 4 22.5 52 69,027 0 22.98 1.12 57.3 67.52 6.83 3.71 9.29 10.22